CEB326 RPLL-RPVB
Flight info
| Callsign | CEB326 |
|---|---|
| Flight time | 0h 48m |
| Altitude | 32000 |
| Route | VERDE2R VERDE W24 TAPER B472 LAMBO LAMBO3P |
| Aircraft | A320/M-SDE3FGHIRWY/LB1 |
Departure
| Time | 2026-04-25 06:39 |
|---|---|
| Airport | Ninoy Aquino International Airport (RPLL) |
Arrival
| Time | 2026-04-25 07:27 |
|---|---|
| Airport | Bacolod-Silay International Airport (RPVB) |
| Time | Latitude | Longitude | Altitude | Speed | Heading |
|---|---|---|---|---|---|
| 2026-04-25 06:25 | 14.50368 | 121.00475 | 69 ft | 0 kts | 308° |
| 2026-04-25 06:31 | 14.50360 | 121.00485 | 61 ft | 2 kts | 308° |
| 2026-04-25 06:32 | 14.50349 | 121.00499 | 65 ft | 2 kts | 308° |
| 2026-04-25 06:32 | 14.50338 | 121.00513 | 61 ft | 2 kts | 308° |
| 2026-04-25 06:32 | 14.50328 | 121.00526 | 66 ft | 3 kts | 302° |
| 2026-04-25 06:32 | 14.50321 | 121.00543 | 60 ft | 3 kts | 276° |
| 2026-04-25 06:33 | 14.50321 | 121.00556 | 62 ft | 0 kts | 255° |
| 2026-04-25 06:34 | 14.50320 | 121.00554 | 62 ft | 2 kts | 255° |
| 2026-04-25 06:34 | 14.50309 | 121.00523 | 63 ft | 5 kts | 248° |
| 2026-04-25 06:34 | 14.50291 | 121.00492 | 61 ft | 8 kts | 240° |
| 2026-04-25 06:34 | 14.50260 | 121.00436 | 68 ft | 9 kts | 240° |
| 2026-04-25 06:35 | 14.50232 | 121.00387 | 65 ft | 7 kts | 240° |
| 2026-04-25 06:35 | 14.50209 | 121.00347 | 59 ft | 6 kts | 232° |
| 2026-04-25 06:35 | 14.50157 | 121.00335 | 64 ft | 9 kts | 173° |
| 2026-04-25 06:35 | 14.50103 | 121.00304 | 61 ft | 9 kts | 236° |
| 2026-04-25 06:36 | 14.50073 | 121.00250 | 60 ft | 8 kts | 240° |
| 2026-04-25 06:36 | 14.50047 | 121.00204 | 68 ft | 7 kts | 240° |
| 2026-04-25 06:36 | 14.50021 | 121.00156 | 61 ft | 14 kts | 240° |
| 2026-04-25 06:36 | 14.49985 | 121.00092 | 66 ft | 15 kts | 240° |
| 2026-04-25 06:37 | 14.49926 | 120.99988 | 63 ft | 9 kts | 239° |
| 2026-04-25 06:37 | 14.49871 | 120.99969 | 64 ft | 13 kts | 165° |
| 2026-04-25 06:37 | 14.49807 | 121.00033 | 60 ft | 14 kts | 91° |
| 2026-04-25 06:37 | 14.49831 | 121.00087 | 69 ft | 0 kts | 58° |
| 2026-04-25 06:38 | 14.49920 | 121.00251 | 63 ft | 64 kts | 60° |
| 2026-04-25 06:38 | 14.50249 | 121.00849 | 66 ft | 125 kts | 60° |
| 2026-04-25 06:38 | 14.50752 | 121.01783 | 93 ft | 170 kts | 67° |
| 2026-04-25 06:39 | 14.51349 | 121.02794 | 885 ft | 162 kts | 63° |
| 2026-04-25 06:39 | 14.52049 | 121.03709 | 1630 ft | 170 kts | 50° |
| 2026-04-25 06:39 | 14.52697 | 121.04800 | 2026 ft | 185 kts | 71° |
| 2026-04-25 06:39 | 14.53056 | 121.06075 | 2763 ft | 185 kts | 74° |
| 2026-04-25 06:40 | 14.53502 | 121.07319 | 3441 ft | 185 kts | 68° |
| 2026-04-25 06:40 | 14.54078 | 121.08487 | 4104 ft | 185 kts | 61° |
| 2026-04-25 06:40 | 14.54784 | 121.09613 | 4691 ft | 192 kts | 61° |
| 2026-04-25 06:40 | 14.55086 | 121.11006 | 5004 ft | 215 kts | 101° |
| 2026-04-25 06:41 | 14.54307 | 121.12387 | 5351 ft | 240 kts | 140° |
| 2026-04-25 06:41 | 14.52697 | 121.13035 | 5688 ft | 266 kts | 177° |
| 2026-04-25 06:41 | 14.50826 | 121.12662 | 6188 ft | 282 kts | 199° |
| 2026-04-25 06:41 | 14.48945 | 121.12007 | 6920 ft | 287 kts | 199° |
| 2026-04-25 06:42 | 14.47043 | 121.11342 | 7712 ft | 290 kts | 199° |
| 2026-04-25 06:42 | 14.45121 | 121.10667 | 8534 ft | 292 kts | 199° |
| 2026-04-25 06:42 | 14.43177 | 121.10020 | 9340 ft | 295 kts | 194° |
| 2026-04-25 06:42 | 14.41142 | 121.09650 | 10103 ft | 299 kts | 187° |
| 2026-04-25 06:43 | 14.39005 | 121.09463 | 10454 ft | 319 kts | 184° |
| 2026-04-25 06:43 | 14.36708 | 121.09351 | 10660 ft | 341 kts | 183° |
| 2026-04-25 06:43 | 14.34307 | 121.09257 | 11169 ft | 349 kts | 183° |
| 2026-04-25 06:43 | 14.31863 | 121.09148 | 11834 ft | 353 kts | 184° |
| 2026-04-25 06:44 | 14.29397 | 121.09012 | 12523 ft | 356 kts | 184° |
| 2026-04-25 06:44 | 14.26907 | 121.08847 | 13215 ft | 358 kts | 185° |
| 2026-04-25 06:44 | 14.24409 | 121.08664 | 13862 ft | 361 kts | 185° |
| 2026-04-25 06:44 | 14.21924 | 121.08473 | 14423 ft | 364 kts | 185° |
| 2026-04-25 06:45 | 14.19381 | 121.08277 | 14971 ft | 368 kts | 185° |
| 2026-04-25 06:45 | 14.16815 | 121.08082 | 15511 ft | 372 kts | 185° |
| 2026-04-25 06:45 | 14.14220 | 121.07888 | 16040 ft | 376 kts | 186° |
| 2026-04-25 06:45 | 14.11599 | 121.07694 | 16568 ft | 379 kts | 186° |
| 2026-04-25 06:46 | 14.08951 | 121.07499 | 17090 ft | 383 kts | 186° |
| 2026-04-25 06:46 | 14.06275 | 121.07300 | 17607 ft | 387 kts | 186° |
| 2026-04-25 06:46 | 14.03577 | 121.07100 | 18134 ft | 390 kts | 186° |
| 2026-04-25 06:46 | 14.00857 | 121.06898 | 18570 ft | 393 kts | 186° |
| 2026-04-25 06:47 | 13.98122 | 121.06695 | 19032 ft | 395 kts | 186° |
| 2026-04-25 06:47 | 13.95373 | 121.06492 | 19500 ft | 397 kts | 186° |
| 2026-04-25 06:47 | 13.92611 | 121.06291 | 19957 ft | 398 kts | 185° |
| 2026-04-25 06:47 | 13.89836 | 121.06089 | 20403 ft | 400 kts | 185° |
| 2026-04-25 06:48 | 13.87048 | 121.05885 | 20860 ft | 402 kts | 185° |
| 2026-04-25 06:48 | 13.84249 | 121.05678 | 21300 ft | 404 kts | 185° |
| 2026-04-25 06:48 | 13.81467 | 121.05472 | 21742 ft | 406 kts | 185° |
| 2026-04-25 06:48 | 13.78639 | 121.05262 | 22171 ft | 409 kts | 185° |
| 2026-04-25 06:49 | 13.75795 | 121.05051 | 22595 ft | 411 kts | 185° |
| 2026-04-25 06:49 | 13.72933 | 121.04838 | 23017 ft | 413 kts | 185° |
| 2026-04-25 06:49 | 13.70056 | 121.04622 | 23425 ft | 415 kts | 185° |
| 2026-04-25 06:49 | 13.67159 | 121.04405 | 23761 ft | 418 kts | 185° |
| 2026-04-25 06:50 | 13.64249 | 121.04191 | 24078 ft | 420 kts | 185° |
| 2026-04-25 06:50 | 13.61318 | 121.03975 | 24416 ft | 423 kts | 185° |
| 2026-04-25 06:50 | 13.58370 | 121.03759 | 24731 ft | 426 kts | 185° |
| 2026-04-25 06:50 | 13.55442 | 121.03574 | 25047 ft | 428 kts | 182° |
| 2026-04-25 06:51 | 13.52458 | 121.03793 | 25351 ft | 433 kts | 172° |
| 2026-04-25 06:51 | 13.49521 | 121.04552 | 25654 ft | 438 kts | 162° |
| 2026-04-25 06:51 | 13.46729 | 121.05833 | 25954 ft | 443 kts | 152° |
| 2026-04-25 06:51 | 13.44138 | 121.07563 | 26242 ft | 446 kts | 147° |
| 2026-04-25 06:52 | 13.41558 | 121.09381 | 26538 ft | 449 kts | 147° |
| 2026-04-25 06:52 | 13.38976 | 121.11199 | 26837 ft | 451 kts | 147° |
| 2026-04-25 06:52 | 13.36375 | 121.13024 | 27127 ft | 454 kts | 147° |
| 2026-04-25 06:52 | 13.33793 | 121.14835 | 27429 ft | 456 kts | 147° |
| 2026-04-25 06:53 | 13.31161 | 121.16679 | 27718 ft | 459 kts | 147° |
| 2026-04-25 06:53 | 13.28517 | 121.18531 | 28019 ft | 461 kts | 147° |
| 2026-04-25 06:53 | 13.25859 | 121.20393 | 28315 ft | 463 kts | 147° |
| 2026-04-25 06:53 | 13.23190 | 121.22267 | 28592 ft | 466 kts | 147° |
| 2026-04-25 06:54 | 13.20510 | 121.24146 | 28871 ft | 468 kts | 147° |
| 2026-04-25 06:54 | 13.17812 | 121.26034 | 29146 ft | 470 kts | 147° |
| 2026-04-25 06:54 | 13.15104 | 121.27930 | 29420 ft | 472 kts | 147° |
| 2026-04-25 06:54 | 13.12381 | 121.29836 | 29674 ft | 474 kts | 147° |
| 2026-04-25 06:55 | 13.09647 | 121.31750 | 29936 ft | 477 kts | 147° |
| 2026-04-25 06:55 | 13.06900 | 121.33671 | 30156 ft | 478 kts | 147° |
| 2026-04-25 06:55 | 13.04146 | 121.35599 | 30403 ft | 480 kts | 147° |
| 2026-04-25 06:55 | 13.01387 | 121.37532 | 30651 ft | 480 kts | 148° |
| 2026-04-25 06:56 | 12.98663 | 121.39440 | 30987 ft | 479 kts | 148° |
| 2026-04-25 06:56 | 12.95922 | 121.41359 | 31385 ft | 476 kts | 148° |
| 2026-04-25 06:56 | 12.93197 | 121.43267 | 31793 ft | 473 kts | 148° |
| 2026-04-25 06:56 | 12.90491 | 121.45163 | 32203 ft | 470 kts | 148° |
| 2026-04-25 06:57 | 12.87797 | 121.47048 | 32618 ft | 467 kts | 148° |
| 2026-04-25 06:57 | 12.85119 | 121.48919 | 32854 ft | 465 kts | 148° |
| 2026-04-25 06:57 | 12.82468 | 121.50771 | 32904 ft | 458 kts | 148° |
| 2026-04-25 06:58 | 12.77241 | 121.54423 | 32906 ft | 452 kts | 148° |
| 2026-04-25 06:58 | 12.72043 | 121.58053 | 32900 ft | 451 kts | 148° |
| 2026-04-25 06:59 | 12.66882 | 121.61644 | 32898 ft | 451 kts | 148° |
| 2026-04-25 06:59 | 12.61694 | 121.65254 | 32894 ft | 451 kts | 148° |
| 2026-04-25 07:00 | 12.56507 | 121.68871 | 32897 ft | 451 kts | 148° |
| 2026-04-25 07:00 | 12.51321 | 121.72491 | 32895 ft | 451 kts | 148° |
| 2026-04-25 07:01 | 12.46135 | 121.76102 | 32889 ft | 450 kts | 148° |
| 2026-04-25 07:01 | 12.40948 | 121.79711 | 32888 ft | 450 kts | 148° |
| 2026-04-25 07:02 | 12.35675 | 121.83127 | 32889 ft | 447 kts | 156° |
| 2026-04-25 07:02 | 12.30000 | 121.85623 | 32880 ft | 446 kts | 159° |
| 2026-04-25 07:03 | 12.24283 | 121.88119 | 32881 ft | 446 kts | 158° |
| 2026-04-25 07:03 | 12.18568 | 121.90617 | 32879 ft | 447 kts | 158° |
| 2026-04-25 07:04 | 12.12846 | 121.93106 | 32881 ft | 447 kts | 158° |
| 2026-04-25 07:04 | 12.07126 | 121.95592 | 32882 ft | 447 kts | 158° |
| 2026-04-25 07:05 | 12.01416 | 121.98087 | 32878 ft | 446 kts | 158° |
| 2026-04-25 07:05 | 11.95697 | 122.00583 | 32878 ft | 446 kts | 158° |
| 2026-04-25 07:06 | 11.89983 | 122.03078 | 32606 ft | 446 kts | 158° |
| 2026-04-25 07:06 | 11.87136 | 122.04318 | 32056 ft | 443 kts | 159° |
| 2026-04-25 07:06 | 11.84302 | 122.05546 | 31442 ft | 441 kts | 159° |
| 2026-04-25 07:06 | 11.81482 | 122.06769 | 30848 ft | 440 kts | 159° |
| 2026-04-25 07:07 | 11.78668 | 122.07990 | 30259 ft | 439 kts | 159° |
| 2026-04-25 07:07 | 11.75920 | 122.09185 | 29643 ft | 439 kts | 159° |
| 2026-04-25 07:07 | 11.73116 | 122.10404 | 29044 ft | 436 kts | 159° |
| 2026-04-25 07:07 | 11.70334 | 122.11612 | 28468 ft | 433 kts | 159° |
| 2026-04-25 07:08 | 11.67567 | 122.12816 | 27900 ft | 431 kts | 159° |
| 2026-04-25 07:08 | 11.64814 | 122.14013 | 27334 ft | 429 kts | 158° |
| 2026-04-25 07:08 | 11.62080 | 122.15202 | 26766 ft | 426 kts | 158° |
| 2026-04-25 07:08 | 11.59402 | 122.16367 | 26225 ft | 423 kts | 158° |
| 2026-04-25 07:09 | 11.56710 | 122.17538 | 25691 ft | 419 kts | 158° |
| 2026-04-25 07:09 | 11.54034 | 122.18703 | 25152 ft | 416 kts | 158° |
| 2026-04-25 07:09 | 11.51380 | 122.19858 | 24651 ft | 413 kts | 158° |
| 2026-04-25 07:09 | 11.48741 | 122.21004 | 24134 ft | 410 kts | 158° |
| 2026-04-25 07:10 | 11.46128 | 122.22134 | 23652 ft | 406 kts | 158° |
| 2026-04-25 07:10 | 11.43528 | 122.23254 | 23115 ft | 402 kts | 158° |
| 2026-04-25 07:10 | 11.40963 | 122.24363 | 22636 ft | 397 kts | 157° |
| 2026-04-25 07:10 | 11.38434 | 122.25462 | 22170 ft | 393 kts | 157° |
| 2026-04-25 07:11 | 11.35931 | 122.26552 | 21696 ft | 389 kts | 157° |
| 2026-04-25 07:11 | 11.33453 | 122.27628 | 21232 ft | 386 kts | 157° |
| 2026-04-25 07:11 | 11.30986 | 122.28696 | 20751 ft | 384 kts | 157° |
| 2026-04-25 07:11 | 11.28534 | 122.29756 | 20275 ft | 382 kts | 157° |
| 2026-04-25 07:12 | 11.26092 | 122.30813 | 19786 ft | 381 kts | 157° |
| 2026-04-25 07:12 | 11.21224 | 122.32918 | 18977 ft | 375 kts | 156° |
| 2026-04-25 07:12 | 11.18890 | 122.33927 | 18863 ft | 363 kts | 156° |
| 2026-04-25 07:13 | 11.16599 | 122.34924 | 18733 ft | 352 kts | 154° |
| 2026-04-25 07:13 | 11.14479 | 122.36140 | 18332 ft | 351 kts | 148° |
| 2026-04-25 07:13 | 11.12385 | 122.37422 | 18014 ft | 347 kts | 148° |
| 2026-04-25 07:13 | 11.10320 | 122.38685 | 17642 ft | 345 kts | 148° |
| 2026-04-25 07:14 | 11.08272 | 122.39936 | 17276 ft | 342 kts | 148° |
| 2026-04-25 07:14 | 11.06237 | 122.41178 | 16924 ft | 339 kts | 149° |
| 2026-04-25 07:14 | 11.04233 | 122.42404 | 16356 ft | 334 kts | 149° |
| 2026-04-25 07:14 | 11.02251 | 122.43616 | 15744 ft | 331 kts | 149° |
| 2026-04-25 07:15 | 11.00291 | 122.44814 | 15159 ft | 327 kts | 149° |
| 2026-04-25 07:15 | 10.98354 | 122.45993 | 14594 ft | 323 kts | 149° |
| 2026-04-25 07:15 | 10.96438 | 122.47158 | 14039 ft | 319 kts | 149° |
| 2026-04-25 07:15 | 10.94547 | 122.48309 | 13490 ft | 315 kts | 149° |
| 2026-04-25 07:16 | 10.92679 | 122.49449 | 12880 ft | 311 kts | 148° |
| 2026-04-25 07:16 | 10.90823 | 122.50583 | 12485 ft | 309 kts | 148° |
| 2026-04-25 07:16 | 10.89025 | 122.51687 | 12045 ft | 304 kts | 146° |
| 2026-04-25 07:16 | 10.87400 | 122.53036 | 11422 ft | 300 kts | 132° |
| 2026-04-25 07:17 | 10.86111 | 122.54669 | 10931 ft | 294 kts | 126° |
| 2026-04-25 07:17 | 10.84885 | 122.56316 | 10466 ft | 290 kts | 125° |
| 2026-04-25 07:17 | 10.83670 | 122.57937 | 10043 ft | 286 kts | 126° |
| 2026-04-25 07:17 | 10.82458 | 122.59553 | 9607 ft | 288 kts | 125° |
| 2026-04-25 07:18 | 10.81248 | 122.61175 | 9191 ft | 288 kts | 125° |
| 2026-04-25 07:18 | 10.80044 | 122.62785 | 8839 ft | 285 kts | 126° |
| 2026-04-25 07:18 | 10.78849 | 122.64380 | 8524 ft | 281 kts | 125° |
| 2026-04-25 07:18 | 10.77672 | 122.65952 | 7918 ft | 278 kts | 125° |
| 2026-04-25 07:19 | 10.76511 | 122.67501 | 7444 ft | 273 kts | 125° |
| 2026-04-25 07:19 | 10.75366 | 122.69028 | 7029 ft | 270 kts | 125° |
| 2026-04-25 07:19 | 10.74232 | 122.70543 | 6625 ft | 268 kts | 126° |
| 2026-04-25 07:19 | 10.73104 | 122.72050 | 6211 ft | 267 kts | 126° |
| 2026-04-25 07:20 | 10.71982 | 122.73552 | 5792 ft | 267 kts | 125° |
| 2026-04-25 07:20 | 10.70863 | 122.75049 | 5387 ft | 265 kts | 125° |
| 2026-04-25 07:20 | 10.69747 | 122.76540 | 4985 ft | 265 kts | 126° |
| 2026-04-25 07:20 | 10.68635 | 122.78025 | 4590 ft | 263 kts | 126° |
| 2026-04-25 07:21 | 10.67523 | 122.79510 | 4172 ft | 264 kts | 125° |
| 2026-04-25 07:21 | 10.66526 | 122.81062 | 3776 ft | 261 kts | 112° |
| 2026-04-25 07:21 | 10.66021 | 122.82808 | 3384 ft | 256 kts | 95° |
| 2026-04-25 07:21 | 10.65942 | 122.84534 | 3280 ft | 233 kts | 91° |
| 2026-04-25 07:22 | 10.65883 | 122.86117 | 3203 ft | 219 kts | 91° |
| 2026-04-25 07:22 | 10.65821 | 122.87651 | 3113 ft | 215 kts | 91° |
| 2026-04-25 07:22 | 10.65761 | 122.89168 | 3023 ft | 215 kts | 90° |
| 2026-04-25 07:22 | 10.65721 | 122.90170 | 2975 ft | 213 kts | 91° |
| 2026-04-25 07:23 | 10.65639 | 122.92163 | 2970 ft | 207 kts | 91° |
| 2026-04-25 07:23 | 10.65654 | 122.93136 | 2867 ft | 203 kts | 81° |
| 2026-04-25 07:23 | 10.66333 | 122.94914 | 2434 ft | 204 kts | 54° |
| 2026-04-25 07:23 | 10.67335 | 122.95884 | 2165 ft | 195 kts | 34° |
| 2026-04-25 07:24 | 10.68494 | 122.96564 | 1929 ft | 189 kts | 33° |
| 2026-04-25 07:24 | 10.69232 | 122.96994 | 1775 ft | 178 kts | 32° |
| 2026-04-25 07:24 | 10.70254 | 122.97588 | 1569 ft | 161 kts | 33° |
| 2026-04-25 07:24 | 10.71186 | 122.98131 | 1390 ft | 147 kts | 30° |
| 2026-04-25 07:25 | 10.72051 | 122.98637 | 1199 ft | 145 kts | 33° |
| 2026-04-25 07:25 | 10.72910 | 122.99138 | 1015 ft | 139 kts | 28° |
| 2026-04-25 07:25 | 10.73740 | 122.99623 | 826 ft | 137 kts | 31° |
| 2026-04-25 07:25 | 10.74564 | 123.00103 | 666 ft | 135 kts | 31° |
| 2026-04-25 07:26 | 10.75392 | 123.00587 | 480 ft | 137 kts | 26° |
| 2026-04-25 07:26 | 10.76214 | 123.01067 | 293 ft | 137 kts | 28° |
| 2026-04-25 07:26 | 10.77034 | 123.01541 | 106 ft | 134 kts | 30° |
| 2026-04-25 07:26 | 10.77715 | 123.01944 | 85 ft | 78 kts | 30° |
| 2026-04-25 07:27 | 10.77965 | 123.02091 | 87 ft | 24 kts | 30° |
| 2026-04-25 07:27 | 10.78107 | 123.02175 | 85 ft | 24 kts | 30° |
| 2026-04-25 07:27 | 10.78252 | 123.02258 | 84 ft | 24 kts | 27° |
| 2026-04-25 07:27 | 10.78375 | 123.02318 | 85 ft | 12 kts | 7° |
| 2026-04-25 07:28 | 10.78426 | 123.02350 | 83 ft | 8 kts | 116° |
| 2026-04-25 07:28 | 10.78406 | 123.02345 | 84 ft | 6 kts | 213° |
| 2026-04-25 07:28 | 10.78336 | 123.02303 | 84 ft | 18 kts | 206° |
| 2026-04-25 07:28 | 10.78207 | 123.02232 | 84 ft | 21 kts | 208° |
| 2026-04-25 07:29 | 10.78087 | 123.02163 | 86 ft | 18 kts | 213° |
| 2026-04-25 07:29 | 10.77983 | 123.02102 | 87 ft | 17 kts | 210° |
| 2026-04-25 07:29 | 10.77886 | 123.02044 | 85 ft | 16 kts | 210° |
| 2026-04-25 07:29 | 10.77797 | 123.01992 | 86 ft | 14 kts | 210° |
| 2026-04-25 07:30 | 10.77715 | 123.01944 | 85 ft | 13 kts | 213° |
| 2026-04-25 07:30 | 10.77682 | 123.01868 | 84 ft | 12 kts | 291° |
| 2026-04-25 07:30 | 10.77726 | 123.01793 | 83 ft | 12 kts | 301° |
| 2026-04-25 07:30 | 10.77744 | 123.01719 | 86 ft | 10 kts | 250° |